sensor_id;sensor_type;location;lat;lon;timestamp;P1;durP1;ratioP1;P2;durP2;ratioP2
65855;SDS011;52631;42.208;24.656;2023-02-03T00:01:28;4.55;;;1.83;;
65855;SDS011;52631;42.208;24.656;2023-02-03T00:03:53;4.30;;;1.98;;
65855;SDS011;52631;42.208;24.656;2023-02-03T00:06:19;4.30;;;2.35;;
65855;SDS011;52631;42.208;24.656;2023-02-03T00:08:44;3.83;;;2.40;;
65855;SDS011;52631;42.208;24.656;2023-02-03T00:11:10;4.63;;;2.30;;
65855;SDS011;52631;42.208;24.656;2023-02-03T00:13:35;2.50;;;1.60;;
65855;SDS011;52631;42.208;24.656;2023-02-03T00:16:01;5.47;;;2.80;;
65855;SDS011;52631;42.208;24.656;2023-02-03T00:18:26;4.07;;;2.35;;
65855;SDS011;52631;42.208;24.656;2023-02-03T00:20:52;5.82;;;2.90;;
65855;SDS011;52631;42.208;24.656;2023-02-03T00:23:17;5.25;;;2.90;;
65855;SDS011;52631;42.208;24.656;2023-02-03T00:25:43;5.10;;;2.45;;
65855;SDS011;52631;42.208;24.656;2023-02-03T00:28:09;4.38;;;2.50;;
65855;SDS011;52631;42.208;24.656;2023-02-03T00:30:34;3.65;;;2.17;;
65855;SDS011;52631;42.208;24.656;2023-02-03T00:33:01;4.88;;;2.55;;
65855;SDS011;52631;42.208;24.656;2023-02-03T00:35:27;5.93;;;2.33;;
65855;SDS011;52631;42.208;24.656;2023-02-03T00:37:53;6.20;;;2.55;;
65855;SDS011;52631;42.208;24.656;2023-02-03T00:40:19;5.35;;;2.45;;
65855;SDS011;52631;42.208;24.656;2023-02-03T00:42:46;4.57;;;2.22;;
65855;SDS011;52631;42.208;24.656;2023-02-03T00:45:12;4.55;;;2.35;;
65855;SDS011;52631;42.208;24.656;2023-02-03T00:47:37;3.50;;;2.13;;
65855;SDS011;52631;42.208;24.656;2023-02-03T00:50:03;5.65;;;2.35;;
65855;SDS011;52631;42.208;24.656;2023-02-03T00:52:52;4.30;;;2.47;;
65855;SDS011;52631;42.208;24.656;2023-02-03T00:55:18;3.55;;;2.22;;
65855;SDS011;52631;42.208;24.656;2023-02-03T00:57:43;4.50;;;2.20;;
65855;SDS011;52631;42.208;24.656;2023-02-03T01:00:09;6.88;;;2.83;;
65855;SDS011;52631;42.208;24.656;2023-02-03T01:02:35;5.05;;;3.00;;
65855;SDS011;52631;42.208;24.656;2023-02-03T01:05:00;3.90;;;2.40;;
65855;SDS011;52631;42.208;24.656;2023-02-03T01:07:26;5.80;;;2.55;;
65855;SDS011;52631;42.208;24.656;2023-02-03T01:09:51;5.03;;;2.30;;
65855;SDS011;52631;42.208;24.656;2023-02-03T01:12:17;5.53;;;2.95;;
65855;SDS011;52631;42.208;24.656;2023-02-03T01:14:42;8.27;;;3.00;;
65855;SDS011;52631;42.208;24.656;2023-02-03T01:17:08;5.28;;;2.72;;
65855;SDS011;52631;42.208;24.656;2023-02-03T01:19:33;4.68;;;2.50;;
65855;SDS011;52631;42.208;24.656;2023-02-03T01:21:59;5.20;;;2.80;;
65855;SDS011;52631;42.208;24.656;2023-02-03T01:24:24;8.57;;;3.30;;
65855;SDS011;52631;42.208;24.656;2023-02-03T01:26:50;5.45;;;3.30;;
65855;SDS011;52631;42.208;24.656;2023-02-03T01:29:15;5.00;;;2.55;;
65855;SDS011;52631;42.208;24.656;2023-02-03T01:31:40;4.70;;;2.70;;
65855;SDS011;52631;42.208;24.656;2023-02-03T01:34:07;4.47;;;2.15;;
65855;SDS011;52631;42.208;24.656;2023-02-03T01:36:38;4.93;;;3.33;;
65855;SDS011;52631;42.208;24.656;2023-02-03T01:39:03;4.65;;;2.05;;
65855;SDS011;52631;42.208;24.656;2023-02-03T01:41:31;5.97;;;3.30;;
65855;SDS011;52631;42.208;24.656;2023-02-03T01:43:59;5.70;;;3.38;;
65855;SDS011;52631;42.208;24.656;2023-02-03T01:46:38;6.35;;;3.22;;
65855;SDS011;52631;42.208;24.656;2023-02-03T01:49:14;5.30;;;3.47;;
65855;SDS011;52631;42.208;24.656;2023-02-03T01:51:49;5.28;;;2.78;;
65855;SDS011;52631;42.208;24.656;2023-02-03T01:54:18;5.50;;;3.38;;
65855;SDS011;52631;42.208;24.656;2023-02-03T01:56:50;4.13;;;2.70;;
65855;SDS011;52631;42.208;24.656;2023-02-03T01:59:18;5.20;;;3.13;;
65855;SDS011;52631;42.208;24.656;2023-02-03T02:01:44;5.07;;;2.97;;
65855;SDS011;52631;42.208;24.656;2023-02-03T02:04:10;4.88;;;2.90;;
65855;SDS011;52631;42.208;24.656;2023-02-03T02:06:36;5.07;;;2.83;;
65855;SDS011;52631;42.208;24.656;2023-02-03T02:09:01;6.32;;;3.17;;
65855;SDS011;52631;42.208;24.656;2023-02-03T02:11:27;5.55;;;3.00;;
65855;SDS011;52631;42.208;24.656;2023-02-03T02:13:54;6.63;;;2.85;;
65855;SDS011;52631;42.208;24.656;2023-02-03T02:43:03;5.03;;;2.45;;
65855;SDS011;52631;42.208;24.656;2023-02-03T02:50:56;5.18;;;2.35;;
65855;SDS011;52631;42.208;24.656;2023-02-03T02:53:23;6.75;;;2.38;;
65855;SDS011;52631;42.208;24.656;2023-02-03T02:55:51;5.80;;;2.30;;
65855;SDS011;52631;42.208;24.656;2023-02-03T02:58:18;3.78;;;2.33;;
65855;SDS011;52631;42.208;24.656;2023-02-03T03:00:44;3.55;;;1.95;;
65855;SDS011;52631;42.208;24.656;2023-02-03T03:03:17;3.78;;;2.22;;
65855;SDS011;52631;42.208;24.656;2023-02-03T03:05:50;4.25;;;2.25;;
65855;SDS011;52631;42.208;24.656;2023-02-03T03:08:19;3.63;;;1.90;;
65855;SDS011;52631;42.208;24.656;2023-02-03T03:10:47;9.02;;;2.45;;
65855;SDS011;52631;42.208;24.656;2023-02-03T03:13:16;3.85;;;2.35;;
65855;SDS011;52631;42.208;24.656;2023-02-03T03:15:44;5.95;;;2.60;;
65855;SDS011;52631;42.208;24.656;2023-02-03T03:18:20;4.55;;;2.60;;
65855;SDS011;52631;42.208;24.656;2023-02-03T03:20:55;3.13;;;1.80;;
65855;SDS011;52631;42.208;24.656;2023-02-03T03:23:29;3.25;;;1.80;;
65855;SDS011;52631;42.208;24.656;2023-02-03T03:28:47;2.33;;;1.60;;
65855;SDS011;52631;42.208;24.656;2023-02-03T03:31:15;4.35;;;2.10;;
65855;SDS011;52631;42.208;24.656;2023-02-03T03:33:41;3.17;;;1.65;;
65855;SDS011;52631;42.208;24.656;2023-02-03T03:36:13;4.63;;;1.92;;
65855;SDS011;52631;42.208;24.656;2023-02-03T03:38:56;3.28;;;1.80;;
65855;SDS011;52631;42.208;24.656;2023-02-03T03:41:56;2.75;;;1.75;;
65855;SDS011;52631;42.208;24.656;2023-02-03T03:44:26;4.18;;;2.42;;
65855;SDS011;52631;42.208;24.656;2023-02-03T03:47:28;2.17;;;1.50;;
65855;SDS011;52631;42.208;24.656;2023-02-03T03:49:52;5.07;;;2.80;;
65855;SDS011;52631;42.208;24.656;2023-02-03T03:52:19;3.97;;;1.85;;
65855;SDS011;52631;42.208;24.656;2023-02-03T03:54:48;3.65;;;1.90;;
65855;SDS011;52631;42.208;24.656;2023-02-03T03:57:18;2.65;;;1.77;;
65855;SDS011;52631;42.208;24.656;2023-02-03T03:59:50;2.55;;;1.35;;
65855;SDS011;52631;42.208;24.656;2023-02-03T04:02:16;3.10;;;1.63;;
65855;SDS011;52631;42.208;24.656;2023-02-03T04:04:42;3.78;;;1.90;;
65855;SDS011;52631;42.208;24.656;2023-02-03T04:07:09;2.42;;;1.35;;
65855;SDS011;52631;42.208;24.656;2023-02-03T04:09:35;2.22;;;1.42;;
65855;SDS011;52631;42.208;24.656;2023-02-03T04:12:01;4.03;;;2.15;;
65855;SDS011;52631;42.208;24.656;2023-02-03T04:14:30;4.00;;;1.67;;
65855;SDS011;52631;42.208;24.656;2023-02-03T04:16:57;2.90;;;1.50;;
65855;SDS011;52631;42.208;24.656;2023-02-03T04:19:23;3.25;;;1.92;;
65855;SDS011;52631;42.208;24.656;2023-02-03T04:21:49;4.28;;;1.90;;
65855;SDS011;52631;42.208;24.656;2023-02-03T04:24:15;3.80;;;1.85;;
65855;SDS011;52631;42.208;24.656;2023-02-03T04:26:40;3.45;;;2.13;;
65855;SDS011;52631;42.208;24.656;2023-02-03T04:29:05;3.97;;;1.70;;
65855;SDS011;52631;42.208;24.656;2023-02-03T04:31:31;5.00;;;2.35;;
65855;SDS011;52631;42.208;24.656;2023-02-03T04:33:56;3.30;;;1.95;;
65855;SDS011;52631;42.208;24.656;2023-02-03T04:36:22;2.95;;;2.03;;
65855;SDS011;52631;42.208;24.656;2023-02-03T04:38:48;4.07;;;2.30;;
65855;SDS011;52631;42.208;24.656;2023-02-03T04:41:13;4.57;;;2.28;;
65855;SDS011;52631;42.208;24.656;2023-02-03T04:43:39;7.10;;;2.70;;
65855;SDS011;52631;42.208;24.656;2023-02-03T04:46:05;5.28;;;2.92;;
65855;SDS011;52631;42.208;24.656;2023-02-03T04:48:30;3.70;;;2.45;;
65855;SDS011;52631;42.208;24.656;2023-02-03T04:50:59;4.45;;;2.40;;
65855;SDS011;52631;42.208;24.656;2023-02-03T04:53:28;4.38;;;2.35;;
65855;SDS011;52631;42.208;24.656;2023-02-03T04:55:54;4.32;;;2.35;;
65855;SDS011;52631;42.208;24.656;2023-02-03T04:58:19;3.08;;;1.60;;
65855;SDS011;52631;42.208;24.656;2023-02-03T05:00:45;3.95;;;2.08;;
65855;SDS011;52631;42.208;24.656;2023-02-03T05:03:10;3.60;;;1.90;;
65855;SDS011;52631;42.208;24.656;2023-02-03T05:05:36;7.45;;;2.42;;
65855;SDS011;52631;42.208;24.656;2023-02-03T05:08:01;3.90;;;2.17;;
65855;SDS011;52631;42.208;24.656;2023-02-03T05:10:27;6.05;;;2.10;;
65855;SDS011;52631;42.208;24.656;2023-02-03T05:12:52;3.15;;;1.95;;
65855;SDS011;52631;42.208;24.656;2023-02-03T05:15:18;3.38;;;2.05;;
65855;SDS011;52631;42.208;24.656;2023-02-03T05:17:43;3.95;;;2.03;;
65855;SDS011;52631;42.208;24.656;2023-02-03T05:20:09;4.38;;;2.90;;
65855;SDS011;52631;42.208;24.656;2023-02-03T05:22:35;5.75;;;2.53;;
65855;SDS011;52631;42.208;24.656;2023-02-03T05:25:00;4.20;;;2.03;;
65855;SDS011;52631;42.208;24.656;2023-02-03T05:27:26;3.67;;;1.95;;
65855;SDS011;52631;42.208;24.656;2023-02-03T05:29:52;3.60;;;2.20;;
65855;SDS011;52631;42.208;24.656;2023-02-03T05:32:17;5.10;;;2.72;;
65855;SDS011;52631;42.208;24.656;2023-02-03T05:34:43;4.28;;;2.17;;
65855;SDS011;52631;42.208;24.656;2023-02-03T05:37:08;3.88;;;2.10;;
65855;SDS011;52631;42.208;24.656;2023-02-03T05:39:34;4.75;;;2.88;;
65855;SDS011;52631;42.208;24.656;2023-02-03T05:41:59;6.28;;;2.88;;
65855;SDS011;52631;42.208;24.656;2023-02-03T05:44:25;5.97;;;2.30;;
65855;SDS011;52631;42.208;24.656;2023-02-03T05:46:52;4.80;;;2.60;;
65855;SDS011;52631;42.208;24.656;2023-02-03T05:49:18;5.03;;;2.60;;
65855;SDS011;52631;42.208;24.656;2023-02-03T05:51:44;3.72;;;2.22;;
65855;SDS011;52631;42.208;24.656;2023-02-03T05:54:11;4.63;;;2.25;;
65855;SDS011;52631;42.208;24.656;2023-02-03T05:56:36;4.40;;;2.00;;
65855;SDS011;52631;42.208;24.656;2023-02-03T05:59:03;3.95;;;2.50;;
65855;SDS011;52631;42.208;24.656;2023-02-03T06:01:29;5.25;;;2.97;;
65855;SDS011;52631;42.208;24.656;2023-02-03T06:03:55;5.50;;;3.05;;
65855;SDS011;52631;42.208;24.656;2023-02-03T06:06:20;5.35;;;3.03;;
65855;SDS011;52631;42.208;24.656;2023-02-03T06:08:46;7.90;;;3.72;;
65855;SDS011;52631;42.208;24.656;2023-02-03T06:11:12;10.38;;;3.53;;
65855;SDS011;52631;42.208;24.656;2023-02-03T06:13:37;7.40;;;3.38;;
65855;SDS011;52631;42.208;24.656;2023-02-03T06:16:03;6.68;;;3.03;;
65855;SDS011;52631;42.208;24.656;2023-02-03T06:18:29;3.65;;;2.30;;
65855;SDS011;52631;42.208;24.656;2023-02-03T06:20:54;4.25;;;2.00;;
65855;SDS011;52631;42.208;24.656;2023-02-03T06:23:19;4.45;;;2.92;;
65855;SDS011;52631;42.208;24.656;2023-02-03T06:25:48;4.43;;;2.40;;
65855;SDS011;52631;42.208;24.656;2023-02-03T06:28:14;4.72;;;2.67;;
65855;SDS011;52631;42.208;24.656;2023-02-03T06:30:40;5.47;;;2.75;;
65855;SDS011;52631;42.208;24.656;2023-02-03T06:33:06;4.10;;;2.58;;
65855;SDS011;52631;42.208;24.656;2023-02-03T06:35:32;4.18;;;2.47;;
65855;SDS011;52631;42.208;24.656;2023-02-03T06:37:57;4.70;;;2.92;;
65855;SDS011;52631;42.208;24.656;2023-02-03T06:40:23;8.13;;;3.67;;
65855;SDS011;52631;42.208;24.656;2023-02-03T06:42:48;6.35;;;3.08;;
65855;SDS011;52631;42.208;24.656;2023-02-03T06:45:15;5.38;;;2.47;;
65855;SDS011;52631;42.208;24.656;2023-02-03T06:47:41;5.38;;;2.72;;
65855;SDS011;52631;42.208;24.656;2023-02-03T06:50:08;6.15;;;2.20;;
65855;SDS011;52631;42.208;24.656;2023-02-03T06:52:35;4.25;;;2.22;;
65855;SDS011;52631;42.208;24.656;2023-02-03T06:55:01;4.03;;;2.38;;
65855;SDS011;52631;42.208;24.656;2023-02-03T06:57:27;4.13;;;2.83;;
65855;SDS011;52631;42.208;24.656;2023-02-03T06:59:52;2.85;;;1.60;;
65855;SDS011;52631;42.208;24.656;2023-02-03T07:02:19;3.75;;;2.10;;
65855;SDS011;52631;42.208;24.656;2023-02-03T07:04:45;3.15;;;1.98;;
65855;SDS011;52631;42.208;24.656;2023-02-03T07:07:11;4.85;;;2.17;;
65855;SDS011;52631;42.208;24.656;2023-02-03T07:09:37;3.90;;;2.70;;
65855;SDS011;52631;42.208;24.656;2023-02-03T07:12:03;5.57;;;3.05;;
65855;SDS011;52631;42.208;24.656;2023-02-03T07:14:29;5.18;;;3.15;;
65855;SDS011;52631;42.208;24.656;2023-02-03T07:16:55;8.43;;;5.15;;
65855;SDS011;52631;42.208;24.656;2023-02-03T07:19:21;7.78;;;4.38;;
65855;SDS011;52631;42.208;24.656;2023-02-03T07:21:46;4.75;;;3.28;;
65855;SDS011;52631;42.208;24.656;2023-02-03T07:24:12;4.82;;;2.85;;
65855;SDS011;52631;42.208;24.656;2023-02-03T07:26:37;3.80;;;2.13;;
65855;SDS011;52631;42.208;24.656;2023-02-03T07:29:03;5.35;;;3.15;;
65855;SDS011;52631;42.208;24.656;2023-02-03T07:31:29;4.45;;;2.60;;
65855;SDS011;52631;42.208;24.656;2023-02-03T07:33:55;3.60;;;2.20;;
65855;SDS011;52631;42.208;24.656;2023-02-03T07:36:20;2.97;;;2.03;;
65855;SDS011;52631;42.208;24.656;2023-02-03T07:38:46;4.50;;;2.65;;
65855;SDS011;52631;42.208;24.656;2023-02-03T07:41:11;7.40;;;2.80;;
65855;SDS011;52631;42.208;24.656;2023-02-03T07:43:37;3.75;;;2.22;;
65855;SDS011;52631;42.208;24.656;2023-02-03T07:46:02;3.95;;;2.35;;
65855;SDS011;52631;42.208;24.656;2023-02-03T07:48:28;4.65;;;2.58;;
65855;SDS011;52631;42.208;24.656;2023-02-03T07:50:53;4.70;;;2.45;;
65855;SDS011;52631;42.208;24.656;2023-02-03T07:53:19;4.25;;;2.08;;
65855;SDS011;52631;42.208;24.656;2023-02-03T07:55:44;3.92;;;2.38;;
65855;SDS011;52631;42.208;24.656;2023-02-03T07:58:10;4.47;;;2.40;;
65855;SDS011;52631;42.208;24.656;2023-02-03T08:00:35;4.45;;;2.83;;
65855;SDS011;52631;42.208;24.656;2023-02-03T08:03:01;3.85;;;2.40;;
65855;SDS011;52631;42.208;24.656;2023-02-03T08:05:26;3.97;;;1.90;;
65855;SDS011;52631;42.208;24.656;2023-02-03T08:07:53;3.80;;;2.13;;
65855;SDS011;52631;42.208;24.656;2023-02-03T08:10:18;3.92;;;2.50;;
65855;SDS011;52631;42.208;24.656;2023-02-03T08:12:44;6.07;;;2.45;;
65855;SDS011;52631;42.208;24.656;2023-02-03T08:15:11;4.00;;;1.90;;
65855;SDS011;52631;42.208;24.656;2023-02-03T08:17:37;3.92;;;2.55;;
65855;SDS011;52631;42.208;24.656;2023-02-03T08:20:05;4.50;;;2.28;;
65855;SDS011;52631;42.208;24.656;2023-02-03T08:22:32;2.65;;;1.80;;
65855;SDS011;52631;42.208;24.656;2023-02-03T08:24:57;4.55;;;2.33;;
65855;SDS011;52631;42.208;24.656;2023-02-03T08:27:23;4.03;;;2.42;;
65855;SDS011;52631;42.208;24.656;2023-02-03T08:29:48;5.32;;;2.90;;
65855;SDS011;52631;42.208;24.656;2023-02-03T08:32:18;3.97;;;2.20;;
65855;SDS011;52631;42.208;24.656;2023-02-03T08:34:45;4.10;;;2.60;;
65855;SDS011;52631;42.208;24.656;2023-02-03T08:37:12;3.00;;;1.90;;
65855;SDS011;52631;42.208;24.656;2023-02-03T08:39:38;5.80;;;2.13;;
65855;SDS011;52631;42.208;24.656;2023-02-03T08:42:04;4.40;;;2.17;;
65855;SDS011;52631;42.208;24.656;2023-02-03T08:44:32;4.07;;;1.67;;
65855;SDS011;52631;42.208;24.656;2023-02-03T08:46:58;2.95;;;1.63;;
65855;SDS011;52631;42.208;24.656;2023-02-03T08:49:24;2.95;;;1.75;;
65855;SDS011;52631;42.208;24.656;2023-02-03T08:51:51;8.18;;;2.35;;
65855;SDS011;52631;42.208;24.656;2023-02-03T08:54:17;3.85;;;2.42;;
65855;SDS011;52631;42.208;24.656;2023-02-03T08:56:43;4.53;;;2.60;;
65855;SDS011;52631;42.208;24.656;2023-02-03T08:59:09;3.92;;;2.08;;
65855;SDS011;52631;42.208;24.656;2023-02-03T09:01:35;3.10;;;2.20;;
65855;SDS011;52631;42.208;24.656;2023-02-03T09:04:00;6.03;;;2.47;;
65855;SDS011;52631;42.208;24.656;2023-02-03T09:06:28;4.45;;;2.88;;
65855;SDS011;52631;42.208;24.656;2023-02-03T09:08:55;3.00;;;1.73;;
65855;SDS011;52631;42.208;24.656;2023-02-03T09:11:20;3.90;;;2.05;;
65855;SDS011;52631;42.208;24.656;2023-02-03T09:13:46;2.88;;;1.83;;
65855;SDS011;52631;42.208;24.656;2023-02-03T09:16:13;3.58;;;1.92;;
65855;SDS011;52631;42.208;24.656;2023-02-03T09:18:43;2.57;;;1.73;;
65855;SDS011;52631;42.208;24.656;2023-02-03T09:21:10;4.82;;;2.20;;
65855;SDS011;52631;42.208;24.656;2023-02-03T09:23:36;6.57;;;2.42;;
65855;SDS011;52631;42.208;24.656;2023-02-03T09:26:02;3.53;;;1.67;;
65855;SDS011;52631;42.208;24.656;2023-02-03T09:28:28;2.97;;;1.55;;
65855;SDS011;52631;42.208;24.656;2023-02-03T09:30:58;3.22;;;1.73;;
65855;SDS011;52631;42.208;24.656;2023-02-03T09:33:27;3.45;;;2.10;;
65855;SDS011;52631;42.208;24.656;2023-02-03T09:35:53;2.70;;;1.67;;
65855;SDS011;52631;42.208;24.656;2023-02-03T09:38:19;3.17;;;1.50;;
65855;SDS011;52631;42.208;24.656;2023-02-03T09:40:45;3.63;;;2.05;;
65855;SDS011;52631;42.208;24.656;2023-02-03T09:43:19;3.55;;;1.85;;
65855;SDS011;52631;42.208;24.656;2023-02-03T09:46:43;3.25;;;1.98;;
65855;SDS011;52631;42.208;24.656;2023-02-03T09:48:53;4.40;;;2.15;;
65855;SDS011;52631;42.208;24.656;2023-02-03T09:51:28;3.30;;;2.10;;
65855;SDS011;52631;42.208;24.656;2023-02-03T09:57:03;3.35;;;1.90;;
65855;SDS011;52631;42.208;24.656;2023-02-03T09:59:29;3.78;;;2.08;;
65855;SDS011;52631;42.208;24.656;2023-02-03T10:17:56;6.40;;;2.47;;
65855;SDS011;52631;42.208;24.656;2023-02-03T10:20:27;5.10;;;2.22;;
65855;SDS011;52631;42.208;24.656;2023-02-03T10:23:01;2.83;;;1.73;;
65855;SDS011;52631;42.208;24.656;2023-02-03T10:28:00;4.57;;;2.25;;
65855;SDS011;52631;42.208;24.656;2023-02-03T10:30:30;6.72;;;4.03;;
65855;SDS011;52631;42.208;24.656;2023-02-03T10:33:10;2.65;;;1.60;;
65855;SDS011;52631;42.208;24.656;2023-02-03T10:36:22;3.00;;;1.88;;
65855;SDS011;52631;42.208;24.656;2023-02-03T10:41:00;3.95;;;1.73;;
65855;SDS011;52631;42.208;24.656;2023-02-03T10:43:27;3.67;;;2.00;;
65855;SDS011;52631;42.208;24.656;2023-02-03T10:46:14;2.72;;;1.80;;
65855;SDS011;52631;42.208;24.656;2023-02-03T10:48:41;3.63;;;2.00;;
65855;SDS011;52631;42.208;24.656;2023-02-03T10:51:25;3.85;;;1.80;;
65855;SDS011;52631;42.208;24.656;2023-02-03T10:53:54;3.03;;;1.65;;
65855;SDS011;52631;42.208;24.656;2023-02-03T10:56:21;3.42;;;1.90;;
65855;SDS011;52631;42.208;24.656;2023-02-03T10:58:59;3.00;;;2.00;;
65855;SDS011;52631;42.208;24.656;2023-02-03T11:01:39;5.22;;;1.70;;
65855;SDS011;52631;42.208;24.656;2023-02-03T11:04:28;5.00;;;3.20;;
65855;SDS011;52631;42.208;24.656;2023-02-03T11:07:06;2.92;;;2.03;;
65855;SDS011;52631;42.208;24.656;2023-02-03T11:09:39;5.68;;;2.70;;
65855;SDS011;52631;42.208;24.656;2023-02-03T11:14:37;2.80;;;1.73;;
65855;SDS011;52631;42.208;24.656;2023-02-03T11:17:07;3.55;;;2.05;;
65855;SDS011;52631;42.208;24.656;2023-02-03T11:19:36;3.75;;;1.73;;
65855;SDS011;52631;42.208;24.656;2023-02-03T11:22:03;3.88;;;1.67;;
65855;SDS011;52631;42.208;24.656;2023-02-03T11:24:30;2.15;;;1.25;;
65855;SDS011;52631;42.208;24.656;2023-02-03T11:26:58;8.23;;;1.55;;
65855;SDS011;52631;42.208;24.656;2023-02-03T11:29:30;3.42;;;2.25;;
65855;SDS011;52631;42.208;24.656;2023-02-03T11:32:02;2.55;;;1.45;;
65855;SDS011;52631;42.208;24.656;2023-02-03T11:34:31;2.97;;;1.70;;
65855;SDS011;52631;42.208;24.656;2023-02-03T11:42:32;4.80;;;1.75;;
65855;SDS011;52631;42.208;24.656;2023-02-03T11:45:42;3.95;;;2.20;;
65855;SDS011;52631;42.208;24.656;2023-02-03T11:51:39;2.58;;;1.52;;
65855;SDS011;52631;42.208;24.656;2023-02-03T12:02:29;3.10;;;1.70;;
65855;SDS011;52631;42.208;24.656;2023-02-03T12:05:29;4.28;;;1.70;;
65855;SDS011;52631;42.208;24.656;2023-02-03T12:19:24;4.47;;;2.08;;
65855;SDS011;52631;42.208;24.656;2023-02-03T12:27:13;3.22;;;1.65;;
65855;SDS011;52631;42.208;24.656;2023-02-03T12:29:52;3.10;;;1.70;;
65855;SDS011;52631;42.208;24.656;2023-02-03T12:37:51;2.03;;;1.25;;
65855;SDS011;52631;42.208;24.656;2023-02-03T12:40:39;3.75;;;2.38;;
65855;SDS011;52631;42.208;24.656;2023-02-03T12:48:45;4.00;;;2.13;;
65855;SDS011;52631;42.208;24.656;2023-02-03T12:51:17;4.07;;;1.95;;
65855;SDS011;52631;42.208;24.656;2023-02-03T12:53:53;3.35;;;1.88;;
65855;SDS011;52631;42.208;24.656;2023-02-03T12:56:28;4.60;;;2.87;;
65855;SDS011;52631;42.208;24.656;2023-02-03T12:59:02;7.40;;;3.38;;
65855;SDS011;52631;42.208;24.656;2023-02-03T13:01:37;4.63;;;2.00;;
65855;SDS011;52631;42.208;24.656;2023-02-03T13:04:14;4.85;;;2.40;;
65855;SDS011;52631;42.208;24.656;2023-02-03T13:12:13;4.32;;;2.53;;
65855;SDS011;52631;42.208;24.656;2023-02-03T13:14:57;4.40;;;2.45;;
65855;SDS011;52631;42.208;24.656;2023-02-03T13:17:29;4.30;;;1.98;;
65855;SDS011;52631;42.208;24.656;2023-02-03T13:19:59;7.68;;;3.22;;
65855;SDS011;52631;42.208;24.656;2023-02-03T13:22:28;4.97;;;1.65;;
65855;SDS011;52631;42.208;24.656;2023-02-03T13:25:01;3.42;;;1.98;;
65855;SDS011;52631;42.208;24.656;2023-02-03T13:27:36;3.92;;;2.00;;
65855;SDS011;52631;42.208;24.656;2023-02-03T13:38:29;2.05;;;1.33;;
65855;SDS011;52631;42.208;24.656;2023-02-03T13:43:54;3.22;;;2.00;;
65855;SDS011;52631;42.208;24.656;2023-02-03T13:46:28;3.20;;;1.80;;
65855;SDS011;52631;42.208;24.656;2023-02-03T13:48:56;3.10;;;1.45;;
65855;SDS011;52631;42.208;24.656;2023-02-03T13:51:24;3.05;;;1.60;;
65855;SDS011;52631;42.208;24.656;2023-02-03T13:53:57;3.20;;;1.70;;
65855;SDS011;52631;42.208;24.656;2023-02-03T13:56:25;3.58;;;1.40;;
65855;SDS011;52631;42.208;24.656;2023-02-03T14:01:37;3.80;;;1.50;;
65855;SDS011;52631;42.208;24.656;2023-02-03T14:04:07;2.85;;;1.52;;
65855;SDS011;52631;42.208;24.656;2023-02-03T14:11:51;2.00;;;1.17;;
65855;SDS011;52631;42.208;24.656;2023-02-03T14:17:02;3.47;;;1.80;;
65855;SDS011;52631;42.208;24.656;2023-02-03T14:21:56;4.22;;;1.50;;
65855;SDS011;52631;42.208;24.656;2023-02-03T14:24:45;3.03;;;1.50;;
65855;SDS011;52631;42.208;24.656;2023-02-03T14:27:20;2.95;;;1.58;;
65855;SDS011;52631;42.208;24.656;2023-02-03T14:37:57;2.53;;;1.60;;
65855;SDS011;52631;42.208;24.656;2023-02-03T14:40:43;2.75;;;1.50;;
65855;SDS011;52631;42.208;24.656;2023-02-03T14:59:40;3.55;;;2.03;;
65855;SDS011;52631;42.208;24.656;2023-02-03T15:02:13;3.03;;;1.75;;
65855;SDS011;52631;42.208;24.656;2023-02-03T15:07:22;2.80;;;1.70;;
65855;SDS011;52631;42.208;24.656;2023-02-03T15:10:01;3.75;;;2.25;;
65855;SDS011;52631;42.208;24.656;2023-02-03T15:12:32;4.15;;;2.10;;
65855;SDS011;52631;42.208;24.656;2023-02-03T15:15:17;7.10;;;1.90;;
65855;SDS011;52631;42.208;24.656;2023-02-03T15:17:46;2.75;;;1.50;;
65855;SDS011;52631;42.208;24.656;2023-02-03T15:23:15;4.93;;;2.90;;
65855;SDS011;52631;42.208;24.656;2023-02-03T15:25:42;3.72;;;2.10;;
65855;SDS011;52631;42.208;24.656;2023-02-03T15:28:09;6.20;;;2.50;;
65855;SDS011;52631;42.208;24.656;2023-02-03T15:30:43;6.93;;;3.95;;
65855;SDS011;52631;42.208;24.656;2023-02-03T15:33:13;4.50;;;2.63;;
65855;SDS011;52631;42.208;24.656;2023-02-03T15:38:13;6.88;;;3.70;;
65855;SDS011;52631;42.208;24.656;2023-02-03T15:40:45;4.22;;;2.47;;
65855;SDS011;52631;42.208;24.656;2023-02-03T15:43:14;6.32;;;3.80;;
65855;SDS011;52631;42.208;24.656;2023-02-03T15:48:45;6.63;;;2.95;;
65855;SDS011;52631;42.208;24.656;2023-02-03T15:54:03;3.13;;;2.00;;
65855;SDS011;52631;42.208;24.656;2023-02-03T16:01:46;4.85;;;2.05;;
65855;SDS011;52631;42.208;24.656;2023-02-03T16:04:11;3.55;;;1.83;;
65855;SDS011;52631;42.208;24.656;2023-02-03T16:06:38;5.93;;;3.35;;
65855;SDS011;52631;42.208;24.656;2023-02-03T16:09:31;3.95;;;2.00;;
65855;SDS011;52631;42.208;24.656;2023-02-03T16:14:48;5.68;;;2.90;;
65855;SDS011;52631;42.208;24.656;2023-02-03T16:19:45;5.00;;;3.22;;
65855;SDS011;52631;42.208;24.656;2023-02-03T16:22:25;6.10;;;3.10;;
65855;SDS011;52631;42.208;24.656;2023-02-03T16:24:56;8.73;;;4.22;;
65855;SDS011;52631;42.208;24.656;2023-02-03T16:29:51;4.20;;;2.38;;
65855;SDS011;52631;42.208;24.656;2023-02-03T16:32:35;10.45;;;5.03;;
65855;SDS011;52631;42.208;24.656;2023-02-03T16:35:20;8.98;;;3.72;;
65855;SDS011;52631;42.208;24.656;2023-02-03T16:38:10;9.73;;;3.65;;
65855;SDS011;52631;42.208;24.656;2023-02-03T16:40:59;6.88;;;2.67;;
65855;SDS011;52631;42.208;24.656;2023-02-03T16:43:43;6.22;;;3.22;;
65855;SDS011;52631;42.208;24.656;2023-02-03T16:46:28;6.47;;;3.45;;
65855;SDS011;52631;42.208;24.656;2023-02-03T16:49:12;5.43;;;3.08;;
65855;SDS011;52631;42.208;24.656;2023-02-03T16:51:56;5.50;;;3.10;;
65855;SDS011;52631;42.208;24.656;2023-02-03T16:54:22;6.85;;;2.72;;
65855;SDS011;52631;42.208;24.656;2023-02-03T16:56:48;7.25;;;2.92;;
65855;SDS011;52631;42.208;24.656;2023-02-03T16:59:15;6.25;;;3.50;;
65855;SDS011;52631;42.208;24.656;2023-02-03T17:01:41;10.27;;;4.57;;
65855;SDS011;52631;42.208;24.656;2023-02-03T17:04:06;6.80;;;3.15;;
65855;SDS011;52631;42.208;24.656;2023-02-03T17:06:32;7.72;;;3.67;;
65855;SDS011;52631;42.208;24.656;2023-02-03T17:09:04;5.25;;;2.72;;
65855;SDS011;52631;42.208;24.656;2023-02-03T17:11:29;6.47;;;3.03;;
65855;SDS011;52631;42.208;24.656;2023-02-03T17:13:55;11.57;;;4.47;;
65855;SDS011;52631;42.208;24.656;2023-02-03T17:16:22;12.30;;;4.53;;
65855;SDS011;52631;42.208;24.656;2023-02-03T17:18:49;12.63;;;4.60;;
65855;SDS011;52631;42.208;24.656;2023-02-03T17:21:15;10.60;;;4.20;;
65855;SDS011;52631;42.208;24.656;2023-02-03T17:23:43;8.30;;;3.92;;
65855;SDS011;52631;42.208;24.656;2023-02-03T17:26:08;9.00;;;5.05;;
65855;SDS011;52631;42.208;24.656;2023-02-03T17:28:34;7.88;;;4.68;;
65855;SDS011;52631;42.208;24.656;2023-02-03T17:31:01;10.05;;;5.78;;
65855;SDS011;52631;42.208;24.656;2023-02-03T17:33:28;6.88;;;4.28;;
65855;SDS011;52631;42.208;24.656;2023-02-03T17:36:05;11.32;;;4.55;;
65855;SDS011;52631;42.208;24.656;2023-02-03T17:38:36;10.48;;;5.00;;
65855;SDS011;52631;42.208;24.656;2023-02-03T17:41:21;9.85;;;3.92;;
65855;SDS011;52631;42.208;24.656;2023-02-03T17:43:49;5.53;;;2.40;;
65855;SDS011;52631;42.208;24.656;2023-02-03T17:46:16;6.43;;;2.72;;
65855;SDS011;52631;42.208;24.656;2023-02-03T17:48:47;4.65;;;3.17;;
65855;SDS011;52631;42.208;24.656;2023-02-03T17:51:14;6.32;;;2.40;;
65855;SDS011;52631;42.208;24.656;2023-02-03T17:53:42;3.33;;;2.20;;